Terminal Aerodrome Forecast
Issued by NWS Boston, MA

Home | Current Version | Previous Version | Text Only | Print | Product List | Glossary On
Versions: 1 2 3 4 5 6 7 8 9 10 11 12 13 14 15 16 17 18 19 20 21 22 23 24 25 26 27 28 29 30 31 32 33 34 35 36
000
FTUS41 KBOX 102340 AAA
TAFORH
TAF AMD
KORH 102340Z 1100/1124 27005KT P6SM OVC070
     FM111400 28012G20KT 4SM -SN BKN030
     FM111900 28014G26KT P6SM BKN035
     FM112300 29015G31KT P6SM SCT035=

USA.gov is the U.S. government's official web portal to all federal, state and local government web resources and services.